createdAt,value
2019-05-07T00:02:52.477Z,4.90
2019-05-07T00:06:56.170Z,4.80
2019-05-07T00:11:02.267Z,4.80
2019-05-07T00:15:07.730Z,4.70
2019-05-07T00:19:12.897Z,4.60
2019-05-07T00:23:16.563Z,4.40
2019-05-07T00:27:19.997Z,4.40
2019-05-07T00:31:25.426Z,4.30
2019-05-07T00:35:32.420Z,4.20
2019-05-07T00:39:43.815Z,4.00
2019-05-07T00:43:49.509Z,4.10
2019-05-07T00:47:53.127Z,3.80
2019-05-07T00:51:56.710Z,3.80
2019-05-07T00:56:01.904Z,3.70
2019-05-07T01:00:06.887Z,3.50
2019-05-07T01:04:12.101Z,3.30
2019-05-07T01:08:15.579Z,3.00
2019-05-07T01:12:19.026Z,3.10
2019-05-07T01:16:22.478Z,3.10
2019-05-07T01:20:26.010Z,3.20
2019-05-07T01:24:29.466Z,3.00
2019-05-07T01:28:34.542Z,2.90
2019-05-07T01:32:45.421Z,2.60
2019-05-07T01:36:48.870Z,2.40
2019-05-07T01:40:52.323Z,2.30
2019-05-07T01:44:55.770Z,2.10
2019-05-07T01:48:59.530Z,1.90
2019-05-07T01:53:03.864Z,1.80
2019-05-07T01:57:07.775Z,2.00
2019-05-07T02:01:13.083Z,1.80
2019-05-07T02:05:26.254Z,1.90
2019-05-07T02:09:31.400Z,1.90
2019-05-07T02:13:36.657Z,2.00
2019-05-07T02:17:40.098Z,2.00
2019-05-07T02:21:43.882Z,2.20
2019-05-07T02:25:47.333Z,2.30
2019-05-07T02:29:52.846Z,2.40
2019-05-07T02:33:55.948Z,2.60
2019-05-07T02:38:13.441Z,2.70
2019-05-07T02:42:14.513Z,2.70
2019-05-07T02:46:31.253Z,2.90
2019-05-07T02:50:32.887Z,2.90
2019-05-07T02:54:54.742Z,2.90
2019-05-07T02:58:58.423Z,3.00
2019-05-07T03:03:04.090Z,3.00
2019-05-07T03:07:07.449Z,3.00
2019-05-07T03:11:14.209Z,3.00
2019-05-07T03:15:16.641Z,2.90
2019-05-07T03:19:20.103Z,2.80
2019-05-07T03:23:25.190Z,2.80
2019-05-07T03:27:28.652Z,2.70
2019-05-07T03:31:36.980Z,2.60
2019-05-07T03:35:46.337Z,2.60
2019-05-07T03:39:47.734Z,2.50
2019-05-07T03:43:52.665Z,2.50
2019-05-07T03:47:58.043Z,2.50
2019-05-07T03:52:04.326Z,2.50
2019-05-07T03:56:26.005Z,2.50
2019-05-07T04:00:33.035Z,2.40
2019-05-07T04:04:35.451Z,2.40
2019-05-07T04:08:38.910Z,2.30
2019-05-07T04:12:44.253Z,2.30
2019-05-07T04:16:47.519Z,2.20
2019-05-07T04:20:53.735Z,2.30
2019-05-07T04:25:04.548Z,2.30
2019-05-07T04:29:13.082Z,2.40
2019-05-07T04:33:20.099Z,2.40
2019-05-07T04:37:24.071Z,2.50
2019-05-07T04:41:27.632Z,2.60
2019-05-07T04:45:33.893Z,2.70
2019-05-07T04:49:36.872Z,2.70
2019-05-07T04:53:42.984Z,2.70
2019-05-07T04:57:45.741Z,2.90
2019-05-07T05:01:53.062Z,3.00
2019-05-07T05:05:56.067Z,3.10
2019-05-07T05:09:59.546Z,3.30
2019-05-07T05:14:07.758Z,3.40
2019-05-07T05:18:09.867Z,3.50
2019-05-07T05:26:41.828Z,3.80
2019-05-07T05:30:45.888Z,4.00
2019-05-07T05:34:51.934Z,4.20
2019-05-07T05:38:54.845Z,4.30
2019-05-07T05:43:05.851Z,4.40
2019-05-07T05:47:11.732Z,4.40
2019-05-07T05:55:42.865Z,4.80
2019-05-07T05:59:54.539Z,4.90
2019-05-07T06:04:02.845Z,5.00
2019-05-07T06:08:12.445Z,5.10
2019-05-07T06:12:17.401Z,5.20
2019-05-07T06:16:22.509Z,5.40
2019-05-07T06:20:33.477Z,5.50
2019-05-07T06:24:44.768Z,5.60
2019-05-07T06:28:48.198Z,5.80
2019-05-07T06:32:52.263Z,5.90
2019-05-07T06:36:55.969Z,6.00
2019-05-07T06:41:02.655Z,6.10
2019-05-07T06:49:33.178Z,6.50
2019-05-07T06:53:36.610Z,6.60
2019-05-07T06:57:42.380Z,6.70
2019-05-07T07:01:46.871Z,6.90
2019-05-07T07:05:52.296Z,7.00
2019-05-07T07:10:09.346Z,7.20
2019-05-07T07:14:13.065Z,7.30
2019-05-07T07:18:16.790Z,7.50
2019-05-07T07:22:22.271Z,7.50
2019-05-07T07:26:26.154Z,7.50
2019-05-07T07:30:34.207Z,7.40
2019-05-07T07:34:39.283Z,7.80
2019-05-07T07:38:43.042Z,7.90
2019-05-07T07:42:46.482Z,7.60
2019-05-07T07:46:52.981Z,7.20
2019-05-07T07:50:55.124Z,7.50
2019-05-07T07:54:58.560Z,7.60
2019-05-07T07:59:18.851Z,8.10
2019-05-07T08:03:22.646Z,8.60
2019-05-07T08:07:26.565Z,8.60
2019-05-07T08:11:31.961Z,8.40
2019-05-07T08:15:35.830Z,8.70
2019-05-07T08:19:39.271Z,8.80
2019-05-07T08:23:42.715Z,8.70
2019-05-07T08:27:46.415Z,9.00
2019-05-07T08:31:51.821Z,8.80
2019-05-07T08:36:00.091Z,9.20
2019-05-07T08:40:04.595Z,8.50
2019-05-07T08:44:14.581Z,8.10
2019-05-07T08:48:16.809Z,8.00
2019-05-07T08:52:22.206Z,8.80
2019-05-07T08:56:25.419Z,8.70
2019-05-07T09:00:28.924Z,8.10
2019-05-07T09:04:32.952Z,7.70
2019-05-07T09:08:36.586Z,8.20
2019-05-07T09:12:42.705Z,8.90
2019-05-07T09:16:44.762Z,9.40
2019-05-07T09:20:48.185Z,9.60
2019-05-07T09:24:52.600Z,9.90
2019-05-07T09:28:58.054Z,9.70
2019-05-07T09:33:03.148Z,10.00
2019-05-07T09:37:14.535Z,10.30
2019-05-07T09:41:27.350Z,10.30
2019-05-07T09:45:32.682Z,10.50
2019-05-07T09:49:35.973Z,10.00
2019-05-07T09:53:39.425Z,9.90
2019-05-07T09:57:42.877Z,10.40
2019-05-07T10:01:46.381Z,10.70
2019-05-07T10:05:51.867Z,10.30
2019-05-07T10:09:55.380Z,10.20
2019-05-07T10:14:01.966Z,10.40
2019-05-07T10:18:12.236Z,10.40
2019-05-07T10:22:15.750Z,10.40
2019-05-07T10:26:19.462Z,10.40
2019-05-07T10:30:23.386Z,10.70
2019-05-07T10:34:27.004Z,11.10
2019-05-07T10:38:30.458Z,11.20
2019-05-07T10:42:33.964Z,10.90
2019-05-07T10:46:39.053Z,10.60
2019-05-07T10:50:44.204Z,10.50
2019-05-07T10:54:59.484Z,11.00
2019-05-07T10:58:52.811Z,10.80
2019-05-07T11:02:56.259Z,10.20
2019-05-07T11:06:59.974Z,10.10
2019-05-07T11:11:03.425Z,10.30
2019-05-07T11:15:07.710Z,10.80
2019-05-07T11:19:12.692Z,11.20
2019-05-07T11:23:16.342Z,11.20
2019-05-07T11:27:22.418Z,10.30
2019-05-07T11:31:25.251Z,9.90
2019-05-07T11:35:28.798Z,11.00
2019-05-07T11:39:33.192Z,11.30
2019-05-07T11:43:38.429Z,11.50
2019-05-07T11:47:42.123Z,11.50
2019-05-07T11:51:51.662Z,10.60
2019-05-07T11:55:55.273Z,10.30
2019-05-07T11:59:59.105Z,10.50
2019-05-07T12:04:02.541Z,10.50
2019-05-07T12:08:07.464Z,10.30
2019-05-07T12:12:12.678Z,10.20
2019-05-07T12:16:16.085Z,10.10
2019-05-07T12:20:21.789Z,10.20
2019-05-07T12:24:25.129Z,10.90
2019-05-07T12:28:28.581Z,10.50
2019-05-07T12:32:45.833Z,10.30
2019-05-07T12:36:49.284Z,10.20
2019-05-07T12:40:53.030Z,10.10
2019-05-07T12:44:56.721Z,10.90
2019-05-07T12:49:00.167Z,11.50
2019-05-07T12:53:23.467Z,12.10
2019-05-07T12:57:26.927Z,11.50
2019-05-07T13:01:48.699Z,11.50
2019-05-07T13:05:52.200Z,11.00
2019-05-07T13:09:55.753Z,10.80
2019-05-07T13:13:59.192Z,10.60
2019-05-07T13:18:02.908Z,10.60
2019-05-07T13:22:06.475Z,10.70
2019-05-07T13:26:10.230Z,10.80
2019-05-07T13:30:14.345Z,11.00
2019-05-07T13:34:17.799Z,11.10
2019-05-07T13:38:28.378Z,10.90
2019-05-07T13:42:43.905Z,10.70
2019-05-07T13:46:48.559Z,10.70
2019-05-07T13:50:52.538Z,10.60
2019-05-07T13:54:56.485Z,10.60
2019-05-07T13:59:02.338Z,10.60
2019-05-07T14:03:05.549Z,10.70
2019-05-07T14:07:09.007Z,10.60
2019-05-07T14:11:12.624Z,10.60
2019-05-07T14:15:16.778Z,10.70
2019-05-07T14:19:22.472Z,10.60
2019-05-07T14:23:25.686Z,11.60
2019-05-07T14:27:29.171Z,11.70
2019-05-07T14:31:33.762Z,11.20
2019-05-07T14:35:38.923Z,11.90
2019-05-07T14:39:42.603Z,12.40
2019-05-07T14:43:53.824Z,12.70
2019-05-07T14:47:57.283Z,12.40
2019-05-07T14:52:02.656Z,12.80
2019-05-07T14:56:06.148Z,13.00
2019-05-07T15:00:12.249Z,13.20
2019-05-07T15:04:15.527Z,13.10
2019-05-07T15:08:19.279Z,13.00
2019-05-07T15:12:23.591Z,12.20
2019-05-07T15:16:28.434Z,12.40
2019-05-07T15:20:33.054Z,12.70
2019-05-07T15:24:36.765Z,13.00
2019-05-07T15:28:41.856Z,12.60
2019-05-07T15:32:45.289Z,12.90
2019-05-07T15:36:48.744Z,11.90
2019-05-07T15:40:52.513Z,11.30
2019-05-07T15:44:55.953Z,11.90
2019-05-07T15:49:01.392Z,12.50
2019-05-07T15:53:12.445Z,11.60
2019-05-07T15:57:23.522Z,11.20
2019-05-07T16:01:26.982Z,11.70
2019-05-07T16:05:31.909Z,12.30
2019-05-07T16:09:44.907Z,11.90
2019-05-07T16:13:50.007Z,11.40
2019-05-07T16:17:55.072Z,11.20
2019-05-07T16:22:03.597Z,11.40
2019-05-07T16:26:05.449Z,11.40
2019-05-07T16:30:09.029Z,11.20
2019-05-07T16:34:12.823Z,11.60
2019-05-07T16:38:18.079Z,11.50
2019-05-07T16:42:21.878Z,11.70
2019-05-07T16:46:25.359Z,11.40
2019-05-07T16:50:29.094Z,11.20
2019-05-07T16:54:32.546Z,11.50
2019-05-07T16:58:42.618Z,11.80
2019-05-07T17:02:51.653Z,11.90
2019-05-07T17:06:55.256Z,12.00
2019-05-07T17:10:58.725Z,12.00
2019-05-07T17:15:02.948Z,11.90
2019-05-07T17:19:06.884Z,11.80
2019-05-07T17:23:11.923Z,11.60
2019-05-07T17:27:15.823Z,11.60
2019-05-07T17:31:19.277Z,11.50
2019-05-07T17:35:23.045Z,11.30
2019-05-07T17:39:26.758Z,11.30
2019-05-07T17:43:32.349Z,11.30
2019-05-07T17:47:35.648Z,11.30
2019-05-07T17:51:45.894Z,11.20
2019-05-07T17:55:49.358Z,11.20
2019-05-07T17:59:52.825Z,11.10
2019-05-07T18:03:56.623Z,11.00
2019-05-07T18:08:02.070Z,11.10
2019-05-07T18:12:06.523Z,11.10
2019-05-07T18:16:14.352Z,11.00
2019-05-07T18:20:17.849Z,10.90
2019-05-07T18:24:22.405Z,10.80
2019-05-07T18:28:27.747Z,10.20
2019-05-07T18:32:32.986Z,9.80
2019-05-07T18:36:36.427Z,9.40
2019-05-07T18:40:42.013Z,9.00
2019-05-07T18:44:45.077Z,8.60
2019-05-07T18:48:48.922Z,8.00
2019-05-07T18:52:52.757Z,7.80
2019-05-07T18:56:56.322Z,7.30
2019-05-07T19:01:02.670Z,6.80
2019-05-07T19:05:06.556Z,6.50
2019-05-07T19:09:10.708Z,6.60
2019-05-07T19:13:14.436Z,6.40
2019-05-07T19:17:18.158Z,6.20
2019-05-07T19:21:24.762Z,5.90
2019-05-07T19:25:28.459Z,5.80
2019-05-07T19:29:32.802Z,5.80
2019-05-07T19:33:36.582Z,5.70
2019-05-07T19:37:42.426Z,5.50
2019-05-07T19:41:45.449Z,5.50
2019-05-07T19:45:49.219Z,5.00
2019-05-07T19:49:52.858Z,4.90
2019-05-07T19:53:56.369Z,4.70
2019-05-07T19:58:01.533Z,4.70
2019-05-07T20:02:06.622Z,4.40
2019-05-07T20:06:10.057Z,4.50
2019-05-07T20:10:15.217Z,4.30
2019-05-07T20:14:18.665Z,4.00
2019-05-07T20:18:22.166Z,3.90
2019-05-07T20:22:25.625Z,3.90
2019-05-07T20:26:29.441Z,4.00
2019-05-07T20:30:32.974Z,4.00
2019-05-07T20:34:36.595Z,3.90
2019-05-07T20:38:42.514Z,3.80
2019-05-07T20:42:45.495Z,3.80
2019-05-07T20:46:49.310Z,3.80
2019-05-07T20:50:52.825Z,3.70
2019-05-07T20:55:04.321Z,3.50
2019-05-07T20:59:07.842Z,3.40
2019-05-07T21:03:23.338Z,3.40
2019-05-07T21:07:26.626Z,3.50
2019-05-07T21:11:32.150Z,3.50
2019-05-07T21:15:35.221Z,3.50
2019-05-07T21:19:38.977Z,3.50
2019-05-07T21:23:43.430Z,3.40
2019-05-07T21:27:47.022Z,3.40
2019-05-07T21:31:52.440Z,3.40
2019-05-07T21:35:56.050Z,3.40
2019-05-07T21:39:59.497Z,3.50
2019-05-07T21:44:03.216Z,3.40
2019-05-07T21:48:06.727Z,3.40
2019-05-07T21:52:12.508Z,3.20
2019-05-07T21:56:17.321Z,3.00
2019-05-07T22:00:25.538Z,2.90
2019-05-07T22:04:29.317Z,2.80
2019-05-07T22:08:32.773Z,2.90
2019-05-07T22:12:36.583Z,2.80
2019-05-07T22:16:40.013Z,2.60
2019-05-07T22:20:43.451Z,2.50
2019-05-07T22:24:49.399Z,2.30
2019-05-07T22:28:54.119Z,2.20
2019-05-07T22:33:08.250Z,2.20
2019-05-07T22:37:12.581Z,2.20
2019-05-07T22:41:16.495Z,2.20
2019-05-07T22:45:19.931Z,2.10
2019-05-07T22:49:23.365Z,2.10
2019-05-07T22:53:27.121Z,2.20
2019-05-07T22:57:42.121Z,2.20
2019-05-07T23:01:45.718Z,2.20
2019-05-07T23:05:49.422Z,2.10
2019-05-07T23:09:52.850Z,1.90
2019-05-07T23:13:56.289Z,1.90
2019-05-07T23:17:59.808Z,1.90
2019-05-07T23:22:03.653Z,1.80
2019-05-07T23:26:07.102Z,1.80
2019-05-07T23:30:13.029Z,1.80
2019-05-07T23:34:16.657Z,1.80
2019-05-07T23:38:22.374Z,1.70
2019-05-07T23:42:26.436Z,1.60
2019-05-07T23:46:29.889Z,1.60
2019-05-07T23:50:33.642Z,1.50
2019-05-07T23:54:37.381Z,1.60
2019-05-07T23:58:41.946Z,1.50
